createdAt,value
2023-02-11T00:03:08.136Z,86.23
2023-02-11T00:07:19.910Z,85.76
2023-02-11T00:11:36.033Z,85.79
2023-02-11T00:15:57.387Z,85.87
2023-02-11T00:20:10.718Z,85.51
2023-02-11T00:24:23.237Z,85.62
2023-02-11T00:28:28.401Z,85.23
2023-02-11T00:32:34.531Z,85.90
2023-02-11T00:36:46.734Z,85.85
2023-02-11T00:40:58.938Z,85.89
2023-02-11T00:45:11.734Z,85.96
2023-02-11T00:49:22.506Z,86.02
2023-02-11T00:53:51.030Z,85.41
2023-02-11T01:02:29.895Z,85.06
2023-02-11T01:06:40.571Z,85.16
2023-02-11T01:10:53.196Z,85.10
2023-02-11T01:15:10.454Z,85.37
2023-02-11T01:19:22.503Z,85.23
2023-02-11T01:23:35.560Z,85.61
2023-02-11T01:27:55.007Z,85.86
2023-02-11T01:32:31.122Z,86.04
2023-02-11T01:36:43.480Z,85.95
2023-02-11T01:40:55.518Z,85.95
2023-02-11T01:45:07.499Z,85.68
2023-02-11T01:49:18.347Z,86.00
2023-02-11T01:53:28.957Z,86.17
2023-02-11T01:57:44.157Z,85.97
2023-02-11T02:01:56.401Z,86.29
2023-02-11T02:06:13.213Z,86.81
2023-02-11T02:10:25.579Z,86.71
2023-02-11T02:14:37.806Z,86.70
2023-02-11T02:18:55.935Z,86.73
2023-02-11T02:23:06.508Z,87.33
2023-02-11T02:27:13.287Z,87.66
2023-02-11T02:31:23.608Z,87.77
2023-02-11T02:35:31.738Z,88.79
2023-02-11T02:39:46.332Z,89.30
2023-02-11T02:43:58.535Z,90.28
2023-02-11T02:48:10.457Z,91.17
2023-02-11T02:52:35.052Z,91.99
2023-02-11T02:57:03.569Z,92.63
2023-02-11T03:01:41.134Z,92.90
2023-02-11T03:05:58.196Z,93.50
2023-02-11T03:10:08.271Z,93.97
2023-02-11T03:14:14.562Z,93.95
2023-02-11T03:18:26.649Z,94.17
2023-02-11T03:22:33.176Z,94.63
2023-02-11T03:26:44.195Z,94.71
2023-02-11T03:30:54.737Z,95.28
2023-02-11T03:35:12.838Z,95.58
2023-02-11T03:39:34.061Z,95.50
2023-02-11T03:43:58.564Z,96.22
2023-02-11T03:48:10.656Z,96.62
2023-02-11T03:52:22.836Z,96.52
2023-02-11T03:56:34.352Z,97.16
2023-02-11T04:00:46.582Z,96.85
2023-02-11T04:04:58.689Z,96.91
2023-02-11T04:09:11.154Z,97.42
2023-02-11T04:13:23.311Z,96.97
2023-02-11T04:17:35.666Z,96.88
2023-02-11T04:21:47.811Z,96.29
2023-02-11T04:26:00.100Z,96.58
2023-02-11T04:30:13.076Z,96.36
2023-02-11T04:34:24.991Z,96.35
2023-02-11T04:38:36.851Z,96.39
2023-02-11T04:42:48.631Z,96.07
2023-02-11T04:51:32.933Z,95.94
2023-02-11T04:55:44.978Z,95.30
2023-02-11T04:59:59.207Z,95.35
2023-02-11T05:04:11.729Z,95.01
2023-02-11T05:08:25.010Z,94.78
2023-02-11T05:12:36.933Z,95.05
2023-02-11T05:16:48.003Z,94.83
2023-02-11T05:21:00.007Z,94.92
2023-02-11T05:25:12.183Z,95.28
2023-02-11T05:29:23.773Z,95.15
2023-02-11T05:33:35.767Z,95.43
2023-02-11T05:37:47.739Z,95.24
2023-02-11T05:41:59.938Z,95.34
2023-02-11T05:46:12.307Z,95.50
2023-02-11T05:50:26.556Z,95.60
2023-02-11T05:54:38.451Z,95.87
2023-02-11T05:58:54.292Z,95.82
2023-02-11T06:03:12.161Z,95.31
2023-02-11T06:07:24.605Z,95.72
2023-02-11T06:11:40.414Z,95.63
2023-02-11T06:16:42.416Z,95.24
2023-02-11T06:20:47.028Z,95.51
2023-02-11T06:25:01.730Z,95.62
2023-02-11T06:29:14.805Z,95.23
2023-02-11T06:33:39.634Z,95.38
2023-02-11T06:37:51.852Z,95.20
2023-02-11T06:42:02.745Z,95.10
2023-02-11T06:46:10.176Z,94.84
2023-02-11T06:50:26.324Z,94.61
2023-02-11T06:54:40.689Z,94.51
2023-02-11T06:58:56.757Z,94.46
2023-02-11T07:03:08.792Z,95.06
2023-02-11T07:07:21.515Z,95.38
2023-02-11T07:11:32.989Z,94.94
2023-02-11T07:15:40.544Z,94.89
2023-02-11T07:19:54.917Z,95.55
2023-02-11T07:24:22.852Z,94.72
2023-02-11T07:28:34.034Z,95.06
2023-02-11T07:32:46.664Z,94.79
2023-02-11T07:36:53.656Z,94.84
2023-02-11T07:45:32.089Z,95.28
2023-02-11T07:49:50.063Z,94.26
2023-02-11T07:53:55.303Z,94.54
2023-02-11T07:58:08.052Z,94.89
2023-02-11T08:02:29.890Z,94.56
2023-02-11T08:06:45.301Z,94.26
2023-02-11T08:10:59.873Z,94.41
2023-02-11T08:15:16.384Z,94.22
2023-02-11T08:19:29.143Z,94.05
2023-02-11T08:23:42.292Z,93.72
2023-02-11T08:27:57.452Z,93.56
2023-02-11T08:32:57.727Z,93.73
2023-02-11T08:36:59.190Z,93.67
2023-02-11T08:41:06.232Z,93.60
2023-02-11T08:45:23.305Z,93.88
2023-02-11T08:54:09.979Z,95.51
2023-02-11T08:58:22.442Z,96.51
2023-02-11T09:02:34.791Z,96.51
2023-02-11T09:06:47.017Z,96.45
2023-02-11T09:10:59.682Z,97.68
2023-02-11T09:15:18.645Z,98.10
2023-02-11T09:19:23.611Z,98.45
2023-02-11T09:23:37.638Z,98.40
2023-02-11T09:27:52.406Z,97.92
2023-02-11T09:32:32.914Z,97.90
2023-02-11T09:36:44.735Z,97.46
2023-02-11T09:41:16.365Z,97.71
2023-02-11T09:45:27.915Z,97.23
2023-02-11T09:49:46.356Z,97.54
2023-02-11T09:54:06.188Z,96.34
2023-02-11T09:58:19.113Z,96.36
2023-02-11T10:02:37.805Z,95.87
2023-02-11T10:07:19.395Z,95.83
2023-02-11T10:11:32.448Z,95.36
2023-02-11T10:15:47.899Z,95.21
2023-02-11T10:19:54.022Z,95.41
2023-02-11T10:24:06.744Z,96.83
2023-02-11T10:28:13.178Z,94.33
2023-02-11T10:32:25.332Z,93.90
2023-02-11T10:36:29.359Z,93.86
2023-02-11T10:40:42.413Z,93.98
2023-02-11T10:45:10.330Z,93.50
2023-02-11T10:49:25.196Z,93.13
2023-02-11T10:53:35.587Z,92.60
2023-02-11T10:57:48.908Z,92.35
2023-02-11T11:02:01.140Z,92.06
2023-02-11T11:06:12.955Z,91.47
2023-02-11T11:10:31.396Z,90.53
2023-02-11T11:14:43.303Z,90.48
2023-02-11T11:19:09.520Z,90.16
2023-02-11T11:23:35.535Z,90.20
2023-02-11T11:27:47.634Z,89.68
2023-02-11T11:31:59.962Z,89.48
2023-02-11T11:36:11.974Z,88.89
2023-02-11T11:40:25.255Z,88.56
2023-02-11T11:44:35.406Z,88.87
2023-02-11T11:48:46.267Z,88.99
2023-02-11T11:52:56.826Z,88.75
2023-02-11T11:57:09.549Z,88.85
2023-02-11T12:01:24.595Z,89.38
2023-02-11T12:05:39.472Z,89.11
2023-02-11T12:10:09.631Z,89.02
2023-02-11T12:14:33.529Z,88.67
2023-02-11T12:18:47.538Z,89.03
2023-02-11T12:23:00.271Z,88.65
2023-02-11T12:27:12.588Z,88.14
2023-02-11T12:31:30.811Z,88.18
2023-02-11T12:36:02.541Z,87.82
2023-02-11T12:40:07.216Z,87.67
2023-02-11T12:44:19.439Z,87.64
2023-02-11T12:48:33.059Z,87.49
2023-02-11T12:52:55.699Z,87.60
2023-02-11T12:57:07.898Z,87.34
2023-02-11T13:01:26.191Z,87.12
2023-02-11T13:05:32.916Z,86.72
2023-02-11T13:09:45.012Z,86.17
2023-02-11T13:13:52.316Z,86.01
2023-02-11T13:18:04.576Z,85.73
2023-02-11T13:22:15.054Z,85.31
2023-02-11T13:26:46.946Z,85.11
2023-02-11T13:31:12.716Z,85.24
2023-02-11T13:35:31.710Z,85.26
2023-02-11T13:39:44.221Z,84.49
2023-02-11T13:44:06.308Z,84.90
2023-02-11T13:48:18.797Z,85.10
2023-02-11T13:52:28.129Z,85.31
2023-02-11T13:57:21.480Z,84.77
2023-02-11T14:01:37.077Z,84.54
2023-02-11T14:05:47.525Z,84.03
2023-02-11T14:09:50.033Z,83.49
2023-02-11T14:14:05.134Z,83.41
2023-02-11T14:18:19.807Z,83.91
2023-02-11T14:22:36.018Z,84.33
2023-02-11T14:27:00.141Z,84.63
2023-02-11T14:31:10.729Z,85.23
2023-02-11T14:40:11.681Z,86.43
2023-02-11T14:44:27.948Z,86.57
2023-02-11T14:48:49.685Z,86.44
2023-02-11T14:52:55.223Z,86.45
2023-02-11T14:57:21.538Z,86.86
2023-02-11T15:01:33.402Z,87.13
2023-02-11T15:05:44.508Z,87.10
2023-02-11T15:09:52.658Z,86.97
2023-02-11T15:14:13.696Z,87.10
2023-02-11T15:18:26.234Z,87.28
2023-02-11T15:22:39.879Z,87.42
2023-02-11T15:26:53.236Z,87.44
2023-02-11T15:31:05.997Z,87.16
2023-02-11T15:35:27.233Z,86.91
2023-02-11T15:39:40.905Z,86.72
2023-02-11T15:53:47.307Z,87.50
2023-02-11T16:02:27.142Z,87.69
2023-02-11T16:07:43.360Z,87.46
2023-02-11T16:16:16.955Z,86.29
2023-02-11T16:20:26.037Z,86.12
2023-02-11T16:24:55.084Z,85.80
2023-02-11T16:29:26.516Z,85.45
2023-02-11T16:33:56.894Z,84.75
2023-02-11T16:38:14.260Z,84.26
2023-02-11T16:42:50.885Z,84.03
2023-02-11T16:47:04.830Z,83.52
2023-02-11T16:51:18.731Z,82.60
2023-02-11T16:55:35.019Z,82.12
2023-02-11T16:59:52.293Z,82.13
2023-02-11T17:04:24.122Z,81.24
2023-02-11T17:08:59.417Z,80.98
2023-02-11T17:13:12.025Z,80.22
2023-02-11T17:17:25.905Z,80.69
2023-02-11T17:21:38.724Z,80.58
2023-02-11T17:25:52.940Z,80.28
2023-02-11T17:30:10.968Z,80.22
2023-02-11T17:34:26.350Z,80.40
2023-02-11T17:38:42.471Z,80.31
2023-02-11T17:42:55.775Z,80.13
2023-02-11T17:47:02.392Z,80.72
2023-02-11T17:51:17.847Z,80.59
2023-02-11T17:55:28.969Z,80.52
2023-02-11T17:59:40.227Z,80.35
2023-02-11T18:03:52.510Z,79.78
2023-02-11T18:08:08.126Z,79.90
2023-02-11T18:12:32.415Z,79.97
2023-02-11T18:16:48.225Z,80.54
2023-02-11T18:20:46.683Z,80.35
2023-02-11T18:25:00.249Z,79.95
2023-02-11T18:29:14.481Z,80.39
2023-02-11T18:33:27.230Z,80.64
2023-02-11T18:37:58.046Z,80.73
2023-02-11T18:42:11.251Z,80.68
2023-02-11T18:46:23.886Z,81.09
2023-02-11T18:50:36.316Z,81.74
2023-02-11T18:54:48.752Z,81.40
2023-02-11T18:58:59.329Z,81.21
2023-02-11T19:03:17.004Z,81.48
2023-02-11T19:07:39.992Z,81.09
2023-02-11T19:12:13.412Z,81.09
2023-02-11T19:16:25.696Z,81.20
2023-02-11T19:20:38.368Z,81.12
2023-02-11T19:24:50.632Z,81.45
2023-02-11T19:29:22.397Z,81.13
2023-02-11T19:33:26.516Z,81.37
2023-02-11T19:37:38.995Z,81.43
2023-02-11T19:41:51.068Z,81.19
2023-02-11T19:46:04.211Z,80.80
2023-02-11T19:50:17.144Z,80.51
2023-02-11T19:54:51.612Z,80.10
2023-02-11T19:58:54.824Z,79.95
2023-02-11T20:03:07.069Z,79.67
2023-02-11T20:07:19.154Z,79.38
2023-02-11T20:11:31.100Z,79.36
2023-02-11T20:15:35.692Z,78.69
2023-02-11T20:19:47.932Z,78.46
2023-02-11T20:23:52.425Z,78.45
2023-02-11T20:28:05.057Z,78.40
2023-02-11T20:32:18.024Z,78.90
2023-02-11T20:36:35.745Z,79.05
2023-02-11T20:41:01.531Z,78.92
2023-02-11T20:45:13.495Z,79.42
2023-02-11T20:53:52.615Z,79.51
2023-02-11T20:57:56.636Z,79.66
2023-02-11T21:02:09.214Z,79.75
2023-02-11T21:06:21.770Z,80.01
2023-02-11T21:10:34.337Z,79.91
2023-02-11T21:14:46.586Z,79.79
2023-02-11T21:18:59.796Z,79.78
2023-02-11T21:23:25.987Z,80.03
2023-02-11T21:27:29.822Z,80.05
2023-02-11T21:32:01.362Z,80.31
2023-02-11T21:36:34.583Z,80.53
2023-02-11T21:40:46.571Z,81.03
2023-02-11T21:44:58.996Z,80.79
2023-02-11T21:49:11.164Z,80.51
2023-02-11T21:53:18.149Z,80.58
2023-02-11T21:57:30.363Z,80.26
2023-02-11T22:01:42.973Z,80.49
2023-02-11T22:05:50.505Z,80.48
2023-02-11T22:10:03.639Z,80.60
2023-02-11T22:14:15.598Z,80.95
2023-02-11T22:18:27.521Z,80.77
2023-02-11T22:22:32.220Z,80.72
2023-02-11T22:26:47.285Z,80.94
2023-02-11T22:30:59.968Z,80.74
2023-02-11T22:35:12.666Z,80.82
2023-02-11T22:39:31.353Z,80.81
2023-02-11T22:43:43.266Z,80.92
2023-02-11T22:47:55.378Z,81.04
2023-02-11T22:52:07.693Z,80.87
2023-02-11T22:56:06.664Z,80.24
2023-02-11T23:00:18.712Z,79.70
2023-02-11T23:04:25.386Z,79.90
2023-02-11T23:08:37.431Z,80.01
2023-02-11T23:12:43.957Z,80.19
2023-02-11T23:16:56.036Z,80.06
2023-02-11T23:21:12.366Z,79.86
2023-02-11T23:25:24.687Z,79.47
2023-02-11T23:29:36.572Z,79.25
2023-02-11T23:33:48.928Z,79.10
2023-02-11T23:38:01.040Z,78.31
2023-02-11T23:42:13.530Z,77.78
2023-02-11T23:46:25.573Z,77.99
2023-02-11T23:50:38.156Z,77.62
2023-02-11T23:54:50.403Z,77.46
2023-02-11T23:59:02.036Z,77.78
